Terminal Aerodrome Forecast
Issued by NWS

Home | Current Version | Previous Version | Text Only | Print | Product List | Glossary Off
Versions: 1 2 3 4 5 6 7 8 9 10 11 12 13 14 15 16 17 18 19 20 21

000
FTUS41 KCLE 240900 AAA
TAFFDY
TAF AMD
KFDY 240958Z 2410/2506 07004KT 6SM BR FEW010 SCT250
      TEMPO 2410/2413 4SM BR
     FM241500 07007KT P6SM BKN015
     FM241800 06006KT P6SM SCT035 BKN250
     FM250100 08005KT P6SM SCT100=

USA.gov is the U.S. government's official web portal to all federal, state and local government web resources and services.